Amherst, Texas
Current Conditions -  °F | °C
As of 6:35 PM on Friday 31 Oct 2014 (Local Time) from KPVW Reporting Station
Clear Clear  
Wind Chill: 57°   Ceiling: Unl
Heat Index: 57°   Visibility: 10mi
Dew Point: 31°   Wind: 5mph
Humidity: 37%   Direction: 130°SE
Pressure: 30.34"   Gusts: NA
Location:  34.01°N, 102.42°W
Report Text: KPVW 312335Z AUTO 13004KT 10SM CLR 14/00 A3034 RMK AO2 T01411005
Loading
Personal Weather Stations






























Interactive Weather Map
Tropical Storm Tracking
New forecast layout! Learn more

10-Day Weather Forecast

Advertisements
Track Severe Weather on mobile